Time;durP1;ratioP1;P1;durP2;ratioP2;P2;SDS_P1;SDS_P2;PMS_P1;PMS_P2;Temp;Humidity;BMP_temperature;BMP_pressure;BME280_temperature;BME280_humidity;BME280_pressure;Samples;Min_cycle;Max_cycle;Signal;HPM_P1;HPM_P2
2022/10/29 00:02:25;;;;;;;37.65;7.93;;;;;;;;;;4985203;28;20488;-51
2022/10/29 00:04:52;;;;;;;46.70;8.88;;;;;;;;;;4985897;28;20396;-52
2022/10/29 00:07:19;;;;;;;36.55;9.73;;;;;;;;;;4990492;28;20076;-52
2022/10/29 00:09:46;;;;;;;65.75;13.80;;;;;;;;;;4991887;28;20057;-54
2022/10/29 00:12:13;;;;;;;58.28;14.07;;;;;;;;;;4974417;28;20027;-51
2022/10/29 00:14:40;;;;;;;57.00;12.60;;;;;;;;;;4982445;28;20365;-52
2022/10/29 00:17:07;;;;;;;43.80;11.15;;;;;;;;;;4974490;28;20026;-52
2022/10/29 00:19:34;;;;;;;48.42;11.05;;;;;;;;;;4986549;28;20025;-52
2022/10/29 00:22:01;;;;;;;51.25;11.40;;;;;;;;;;4976475;28;20555;-51
2022/10/29 00:24:27;;;;;;;53.13;13.10;;;;;;;;;;4976355;28;20074;-51
2022/10/29 00:26:54;;;;;;;45.88;13.15;;;;;;;;;;4976360;28;20117;-55
2022/10/29 00:29:21;;;;;;;45.58;13.07;;;;;;;;;;4981201;28;20041;-51
2022/10/29 00:31:49;;;;;;;40.55;11.43;;;;;;;;;;4984854;28;20055;-48
2022/10/29 00:34:16;;;;;;;46.25;11.45;;;;;;;;;;4989789;28;20508;-51
2022/10/29 00:36:43;;;;;;;41.75;10.73;;;;;;;;;;4976338;28;20037;-56
2022/10/29 00:39:13;;;;;;;49.17;13.57;;;;;;;;;;4976088;28;20050;-50
2022/10/29 00:41:40;;;;;;;61.97;17.77;;;;;;;;;;4976208;28;20102;-50
2022/10/29 00:44:37;;;;;;;50.70;14.75;;;;;;;;;;4990161;28;20043;-48
2022/10/29 00:47:25;;;;;;;41.95;12.60;;;;;;;;;;4987326;28;20128;-53
2022/10/29 00:50:01;;;;;;;41.33;12.70;;;;;;;;;;4989668;28;20057;-51
2022/10/29 00:52:30;;;;;;;60.30;14.85;;;;;;;;;;4976015;28;20030;-50
2022/10/29 00:54:58;;;;;;;55.33;15.38;;;;;;;;;;4994861;28;20027;-53
2022/10/29 00:57:29;;;;;;;45.55;13.20;;;;;;;;;;4987817;28;20027;-56
2022/10/29 00:59:56;;;;;;;42.83;13.73;;;;;;;;;;4989718;28;20026;-51
2022/10/29 01:02:23;;;;;;;42.92;13.40;;;;;;;;;;4994849;28;20126;-50
2022/10/29 01:04:52;;;;;;;39.50;12.48;;;;;;;;;;4995131;28;20534;-52
2022/10/29 01:07:20;;;;;;;37.38;11.73;;;;;;;;;;4989938;28;20035;-51
2022/10/29 01:09:47;;;;;;;42.85;13.27;;;;;;;;;;4975610;28;20050;-53
2022/10/29 01:12:31;;;;;;;46.22;14.27;;;;;;;;;;4975523;28;20031;-54
2022/10/29 01:15:07;;;;;;;44.63;14.38;;;;;;;;;;4975620;28;20035;-55
2022/10/29 01:17:37;;;;;;;52.17;13.90;;;;;;;;;;4975622;28;20678;-51
2022/10/29 01:20:07;;;;;;;47.95;13.93;;;;;;;;;;4987592;28;20349;-52
2022/10/29 01:22:47;;;;;;;49.05;15.10;;;;;;;;;;4981113;28;20014;-50
2022/10/29 01:25:32;;;;;;;38.92;13.20;;;;;;;;;;4982390;28;20038;-49
2022/10/29 01:28:17;;;;;;;42.67;14.25;;;;;;;;;;4982321;28;20045;-51
2022/10/29 01:30:55;;;;;;;46.05;14.25;;;;;;;;;;4980516;28;20369;-51
2022/10/29 01:33:29;;;;;;;41.45;13.55;;;;;;;;;;4985240;28;20661;-50
2022/10/29 01:35:58;;;;;;;39.70;13.40;;;;;;;;;;4977708;28;20027;-50
2022/10/29 01:38:34;;;;;;;42.40;14.05;;;;;;;;;;4994538;28;20037;-53
2022/10/29 01:41:13;;;;;;;42.15;13.73;;;;;;;;;;4991979;28;20088;-50
2022/10/29 01:43:44;;;;;;;34.70;13.10;;;;;;;;;;4985269;28;20026;-50
2022/10/29 01:46:15;;;;;;;40.40;13.85;;;;;;;;;;4991236;28;20118;-53
2022/10/29 01:48:50;;;;;;;42.28;13.82;;;;;;;;;;4974891;28;20034;-52
2022/10/29 01:51:28;;;;;;;45.42;13.40;;;;;;;;;;4974680;28;20019;-50
2022/10/29 01:53:55;;;;;;;40.75;14.05;;;;;;;;;;4974735;28;20444;-49
2022/10/29 01:56:22;;;;;;;33.22;12.77;;;;;;;;;;4987382;28;20110;-52
2022/10/29 01:58:51;;;;;;;39.92;12.63;;;;;;;;;;4975295;28;20034;-51
2022/10/29 02:01:24;;;;;;;31.30;13.73;;;;;;;;;;4974745;28;20563;-50
2022/10/29 02:03:57;;;;;;;35.80;12.90;;;;;;;;;;4987981;28;20033;-50
2022/10/29 02:06:36;;;;;;;38.58;14.00;;;;;;;;;;4986061;28;20038;-51
2022/10/29 02:09:08;;;;;;;39.42;12.20;;;;;;;;;;4979944;28;20054;-54
2022/10/29 02:11:41;;;;;;;38.58;13.68;;;;;;;;;;4993987;28;20526;-55
2022/10/29 02:14:12;;;;;;;40.78;13.70;;;;;;;;;;4988671;28;20023;-51
2022/10/29 02:16:39;;;;;;;37.67;13.00;;;;;;;;;;4986202;28;20045;-50
2022/10/29 02:19:06;;;;;;;29.70;12.35;;;;;;;;;;4989767;28;20421;-53
2022/10/29 02:21:33;;;;;;;33.65;11.98;;;;;;;;;;4974373;28;20027;-51
2022/10/29 02:24:00;;;;;;;33.17;12.00;;;;;;;;;;4976721;28;20026;-51
2022/10/29 02:26:27;;;;;;;31.58;12.23;;;;;;;;;;4985082;28;20056;-48
2022/10/29 02:28:54;;;;;;;32.63;12.25;;;;;;;;;;4988538;28;20033;-52
2022/10/29 02:31:21;;;;;;;27.10;11.57;;;;;;;;;;4993644;28;20026;-50
2022/10/29 02:33:48;;;;;;;35.20;11.98;;;;;;;;;;4993347;28;20022;-51
2022/10/29 02:36:14;;;;;;;30.98;12.45;;;;;;;;;;4974512;28;20018;-53
2022/10/29 02:38:41;;;;;;;37.30;11.65;;;;;;;;;;4985190;28;20117;-50
2022/10/29 02:41:08;;;;;;;31.92;12.02;;;;;;;;;;4989027;28;20027;-49
2022/10/29 02:43:35;;;;;;;28.92;11.60;;;;;;;;;;4983472;28;20031;-52
2022/10/29 02:46:12;;;;;;;30.77;11.68;;;;;;;;;;4979377;28;20035;-55
2022/10/29 02:48:39;;;;;;;25.52;11.05;;;;;;;;;;4983981;28;20113;-49
2022/10/29 02:51:06;;;;;;;32.58;11.52;;;;;;;;;;4988956;28;20062;-53
2022/10/29 02:53:33;;;;;;;26.63;10.50;;;;;;;;;;4993183;28;20026;-51
2022/10/29 02:56:00;;;;;;;28.30;11.82;;;;;;;;;;4993089;28;20034;-55
2022/10/29 02:58:27;;;;;;;29.08;11.23;;;;;;;;;;4990897;28;20030;-53
2022/10/29 03:00:54;;;;;;;30.60;11.30;;;;;;;;;;4973732;28;20023;-51
2022/10/29 03:03:21;;;;;;;26.02;10.82;;;;;;;;;;4987124;28;20026;-51
2022/10/29 03:05:48;;;;;;;26.67;10.27;;;;;;;;;;4980034;28;20026;-52
2022/10/29 03:08:15;;;;;;;27.15;10.80;;;;;;;;;;4992728;28;20038;-58
2022/10/29 03:10:42;;;;;;;26.45;10.57;;;;;;;;;;4992786;28;20472;-52
2022/10/29 03:13:10;;;;;;;27.42;10.95;;;;;;;;;;4981978;28;20023;-56
2022/10/29 03:15:37;;;;;;;26.73;10.18;;;;;;;;;;4990277;28;20033;-53
2022/10/29 03:18:04;;;;;;;26.05;10.95;;;;;;;;;;4992882;28;20080;-49
2022/10/29 03:20:31;;;;;;;23.85;10.23;;;;;;;;;;4992689;28;20068;-50
2022/10/29 03:22:58;;;;;;;24.40;10.70;;;;;;;;;;4992883;28;20507;-48
2022/10/29 03:25:25;;;;;;;21.95;10.05;;;;;;;;;;4978600;28;20027;-49
2022/10/29 03:27:52;;;;;;;25.63;9.88;;;;;;;;;;4973289;28;20038;-51
2022/10/29 03:30:19;;;;;;;22.00;9.63;;;;;;;;;;4973204;28;20023;-50
2022/10/29 03:32:47;;;;;;;23.77;9.68;;;;;;;;;;4986769;28;20030;-53
2022/10/29 03:35:15;;;;;;;20.90;9.23;;;;;;;;;;4973085;28;20393;-50
2022/10/29 03:37:42;;;;;;;23.33;9.73;;;;;;;;;;4973091;28;20396;-53
2022/10/29 03:40:09;;;;;;;22.80;9.35;;;;;;;;;;4982403;28;20033;-50
2022/10/29 03:42:37;;;;;;;19.17;9.80;;;;;;;;;;4992481;28;20471;-50
2022/10/29 03:45:04;;;;;;;19.33;9.10;;;;;;;;;;4984721;28;20102;-52
2022/10/29 03:47:32;;;;;;;21.05;8.52;;;;;;;;;;4986605;28;20088;-51
2022/10/29 03:49:59;;;;;;;22.35;8.70;;;;;;;;;;4979297;28;20050;-53
2022/10/29 03:52:27;;;;;;;22.98;8.93;;;;;;;;;;4993343;28;20451;-50
2022/10/29 03:54:54;;;;;;;22.02;8.55;;;;;;;;;;4992376;28;20027;-54
2022/10/29 03:57:20;;;;;;;19.95;8.35;;;;;;;;;;4996491;28;20026;-51
2022/10/29 03:59:47;;;;;;;21.60;8.70;;;;;;;;;;4982221;28;20198;-54
2022/10/29 04:02:14;;;;;;;22.42;7.95;;;;;;;;;;4993303;28;20440;-56
2022/10/29 04:04:41;;;;;;;20.52;8.40;;;;;;;;;;4979789;28;20725;-49
2022/10/29 04:07:08;;;;;;;18.30;7.40;;;;;;;;;;4990557;28;20030;-53
2022/10/29 04:09:35;;;;;;;15.25;7.30;;;;;;;;;;4995284;28;20046;-55
2022/10/29 04:12:03;;;;;;;19.92;8.80;;;;;;;;;;4993650;28;20037;-53
2022/10/29 04:14:29;;;;;;;18.20;8.20;;;;;;;;;;4994656;28;20033;-56
2022/10/29 04:16:57;;;;;;;18.85;7.53;;;;;;;;;;4994347;28;20080;-50
2022/10/29 04:19:24;;;;;;;14.55;6.82;;;;;;;;;;4980838;28;20030;-53
2022/10/29 04:21:51;;;;;;;17.23;7.20;;;;;;;;;;4989833;28;20413;-52
2022/10/29 04:24:18;;;;;;;19.48;7.68;;;;;;;;;;4994180;28;20113;-52
2022/10/29 04:26:45;;;;;;;17.10;7.47;;;;;;;;;;4978094;28;20053;-58
2022/10/29 04:29:12;;;;;;;24.52;8.23;;;;;;;;;;4994396;28;20049;-53
2022/10/29 04:31:39;;;;;;;11.15;6.55;;;;;;;;;;4978579;28;20380;-50
2022/10/29 04:34:06;;;;;;;17.63;7.60;;;;;;;;;;4981555;28;20018;-53
2022/10/29 04:36:33;;;;;;;16.95;7.38;;;;;;;;;;4994280;28;20555;-54
2022/10/29 04:39:00;;;;;;;14.63;7.07;;;;;;;;;;4994743;28;20503;-53
2022/10/29 04:41:27;;;;;;;15.65;6.80;;;;;;;;;;4994249;28;20439;-51
2022/10/29 04:43:54;;;;;;;23.08;7.07;;;;;;;;;;4982935;28;20379;-54
2022/10/29 04:46:20;;;;;;;18.55;7.55;;;;;;;;;;4982951;28;20456;-54
2022/10/29 04:48:47;;;;;;;17.80;6.53;;;;;;;;;;4994691;28;20127;-49
2022/10/29 04:51:22;;;;;;;17.85;6.63;;;;;;;;;;4989966;28;20038;-49
2022/10/29 04:53:49;;;;;;;18.05;6.95;;;;;;;;;;4987980;28;20070;-50
2022/10/29 04:56:16;;;;;;;19.05;6.78;;;;;;;;;;4988817;28;20037;-48
2022/10/29 04:58:43;;;;;;;21.88;6.82;;;;;;;;;;4995128;28;20045;-48
2022/10/29 05:01:10;;;;;;;20.38;6.82;;;;;;;;;;4995372;28;20045;-48
2022/10/29 05:03:36;;;;;;;14.43;6.28;;;;;;;;;;4994593;28;20041;-49
2022/10/29 05:06:04;;;;;;;19.38;6.78;;;;;;;;;;4986246;28;20106;-52
2022/10/29 05:08:31;;;;;;;16.33;6.60;;;;;;;;;;4989679;28;20057;-51
2022/10/29 05:11:02;;;;;;;17.20;5.85;;;;;;;;;;4987881;28;20049;-48
2022/10/29 05:13:29;;;;;;;18.17;6.15;;;;;;;;;;4975457;28;20166;-50
2022/10/29 05:15:56;;;;;;;18.40;6.22;;;;;;;;;;4981262;28;20030;-50
2022/10/29 05:18:23;;;;;;;20.95;6.55;;;;;;;;;;4983025;28;20034;-48
2022/10/29 05:20:53;;;;;;;16.10;6.65;;;;;;;;;;4979432;28;20022;-48
2022/10/29 05:23:20;;;;;;;19.88;6.20;;;;;;;;;;4983951;28;20034;-47
2022/10/29 05:25:50;;;;;;;18.35;6.22;;;;;;;;;;4978071;28;20041;-49
2022/10/29 05:28:22;;;;;;;17.48;5.85;;;;;;;;;;4994496;28;20149;-50
2022/10/29 05:30:50;;;;;;;16.52;6.25;;;;;;;;;;4978281;28;20078;-49
2022/10/29 05:33:18;;;;;;;16.27;5.80;;;;;;;;;;4975089;28;20026;-49
2022/10/29 05:35:46;;;;;;;17.15;6.38;;;;;;;;;;4974894;28;20031;-50
2022/10/29 05:38:13;;;;;;;15.73;5.70;;;;;;;;;;4975208;28;20023;-49
2022/10/29 05:40:43;;;;;;;11.45;5.55;;;;;;;;;;4974932;28;20361;-49
2022/10/29 05:43:14;;;;;;;18.77;6.03;;;;;;;;;;4981221;28;20534;-52
2022/10/29 05:45:41;;;;;;;18.02;5.80;;;;;;;;;;4981387;28;20117;-50
2022/10/29 05:48:08;;;;;;;11.70;5.57;;;;;;;;;;4980003;28;20492;-49
2022/10/29 05:50:35;;;;;;;12.63;5.05;;;;;;;;;;4974920;28;20407;-48
2022/10/29 05:53:04;;;;;;;12.40;5.10;;;;;;;;;;4974673;28;20540;-51
2022/10/29 05:55:31;;;;;;;12.40;5.43;;;;;;;;;;4980229;28;20034;-49
2022/10/29 05:57:59;;;;;;;12.57;5.68;;;;;;;;;;4993915;28;20034;-49
2022/10/29 06:00:28;;;;;;;14.13;5.78;;;;;;;;;;4975937;28;20563;-50
2022/10/29 06:02:55;;;;;;;10.02;4.90;;;;;;;;;;4990447;28;20512;-50
2022/10/29 06:05:22;;;;;;;13.82;5.53;;;;;;;;;;4990929;28;20133;-48
2022/10/29 06:07:59;;;;;;;10.65;4.78;;;;;;;;;;4983584;28;20030;-47
2022/10/29 06:10:27;;;;;;;11.05;5.13;;;;;;;;;;4993340;28;20109;-49
2022/10/29 06:12:54;;;;;;;11.85;5.32;;;;;;;;;;4993951;28;20042;-49
2022/10/29 06:15:21;;;;;;;9.65;4.32;;;;;;;;;;4992356;28;20121;-48
2022/10/29 06:17:48;;;;;;;14.82;4.57;;;;;;;;;;4974361;28;20139;-47
2022/10/29 06:20:17;;;;;;;12.20;4.45;;;;;;;;;;4974396;28;20138;-48
2022/10/29 06:22:44;;;;;;;8.40;4.25;;;;;;;;;;4974189;28;20034;-48
2022/10/29 06:25:11;;;;;;;10.18;4.32;;;;;;;;;;4986187;28;20030;-49
2022/10/29 06:27:38;;;;;;;12.50;4.97;;;;;;;;;;4979834;28;20313;-49
2022/10/29 06:30:05;;;;;;;11.82;4.50;;;;;;;;;;4983285;28;20074;-48
2022/10/29 06:32:32;;;;;;;10.75;4.70;;;;;;;;;;4974152;28;20396;-48
2022/10/29 06:34:59;;;;;;;11.85;3.85;;;;;;;;;;4974064;28;20043;-49
2022/10/29 06:37:28;;;;;;;9.02;4.50;;;;;;;;;;4975130;28;20034;-47
2022/10/29 06:39:55;;;;;;;9.18;4.07;;;;;;;;;;4986107;28;20079;-47
2022/10/29 06:42:22;;;;;;;12.23;4.30;;;;;;;;;;4974017;28;20054;-49
2022/10/29 06:44:49;;;;;;;12.25;4.57;;;;;;;;;;4979352;28;20030;-48
2022/10/29 06:47:16;;;;;;;9.20;3.95;;;;;;;;;;4981535;28;20090;-50
2022/10/29 06:49:43;;;;;;;7.28;4.07;;;;;;;;;;4973610;28;20601;-48
2022/10/29 06:52:10;;;;;;;7.90;3.88;;;;;;;;;;4983754;28;20030;-47
2022/10/29 06:54:37;;;;;;;9.73;3.58;;;;;;;;;;4990588;28;20022;-49
2022/10/29 06:57:04;;;;;;;7.65;4.00;;;;;;;;;;4987331;28;20033;-50
2022/10/29 06:59:30;;;;;;;11.77;3.90;;;;;;;;;;4984200;28;20030;-48
2022/10/29 07:01:57;;;;;;;6.30;3.38;;;;;;;;;;4976345;28;20560;-50
2022/10/29 07:04:24;;;;;;;7.57;3.72;;;;;;;;;;4981112;28;20034;-48
2022/10/29 07:06:51;;;;;;;7.80;3.63;;;;;;;;;;4979016;28;20031;-52
2022/10/29 07:09:18;;;;;;;8.63;3.50;;;;;;;;;;4986735;28;20058;-50
2022/10/29 07:11:45;;;;;;;9.30;3.78;;;;;;;;;;4976874;28;20030;-48
2022/10/29 07:14:12;;;;;;;8.35;3.40;;;;;;;;;;4983354;28;20077;-48
2022/10/29 07:16:39;;;;;;;8.50;3.58;;;;;;;;;;4988684;28;20034;-49
2022/10/29 07:19:06;;;;;;;6.45;3.25;;;;;;;;;;4985055;28;20113;-50
2022/10/29 07:21:33;;;;;;;9.80;3.70;;;;;;;;;;4973309;28;20105;-53
2022/10/29 07:24:00;;;;;;;7.65;3.17;;;;;;;;;;4979487;28;20022;-47
2022/10/29 07:26:27;;;;;;;8.52;3.20;;;;;;;;;;4992820;28;20034;-49
2022/10/29 07:28:57;;;;;;;6.32;3.05;;;;;;;;;;4973896;28;20042;-48
2022/10/29 07:31:24;;;;;;;9.88;3.83;;;;;;;;;;4984214;28;20033;-51
2022/10/29 07:33:51;;;;;;;7.47;3.10;;;;;;;;;;4989029;28;20029;-47
2022/10/29 07:36:18;;;;;;;6.82;3.20;;;;;;;;;;4973249;28;20039;-50
2022/10/29 07:38:46;;;;;;;6.68;3.17;;;;;;;;;;4973057;28;20031;-51
2022/10/29 07:41:13;;;;;;;8.93;2.90;;;;;;;;;;4980893;28;20030;-50
2022/10/29 07:43:40;;;;;;;5.95;3.00;;;;;;;;;;4978201;28;20038;-47
2022/10/29 07:46:07;;;;;;;6.95;2.92;;;;;;;;;;4991206;28;20476;-47
2022/10/29 07:48:34;;;;;;;9.82;2.88;;;;;;;;;;4980110;28;20366;-50
2022/10/29 07:51:01;;;;;;;8.77;2.80;;;;;;;;;;4972908;28;20022;-54
2022/10/29 07:53:30;;;;;;;6.75;2.63;;;;;;;;;;4983545;28;20169;-49
2022/10/29 07:55:57;;;;;;;7.43;2.90;;;;;;;;;;4992161;28;20035;-47
2022/10/29 07:58:24;;;;;;;10.07;2.88;;;;;;;;;;4990660;28;20436;-50
2022/10/29 08:00:52;;;;;;;7.82;2.75;;;;;;;;;;4980721;28;20035;-47
2022/10/29 08:03:19;;;;;;;13.02;2.45;;;;;;;;;;4978347;28;20037;-47
2022/10/29 08:05:48;;;;;;;4.90;2.30;;;;;;;;;;4978948;28;20040;-51
2022/10/29 08:08:16;;;;;;;6.78;2.30;;;;;;;;;;4979406;28;20053;-50
2022/10/29 08:10:44;;;;;;;9.27;2.10;;;;;;;;;;4972571;28;20035;-50
2022/10/29 08:13:11;;;;;;;7.97;2.00;;;;;;;;;;4972838;28;20031;-49
2022/10/29 08:15:38;;;;;;;5.78;2.08;;;;;;;;;;4989732;28;20488;-49
2022/10/29 08:18:09;;;;;;;7.25;1.90;;;;;;;;;;4992287;28;20033;-49
2022/10/29 08:20:36;;;;;;;10.43;2.45;;;;;;;;;;4976030;28;20037;-48
2022/10/29 08:23:03;;;;;;;11.50;2.30;;;;;;;;;;4972768;28;20033;-48
2022/10/29 08:25:30;;;;;;;8.43;2.00;;;;;;;;;;4986117;28;20030;-50
2022/10/29 08:28:01;;;;;;;6.57;1.90;;;;;;;;;;4972741;28;20559;-49
2022/10/29 08:30:31;;;;;;;7.68;1.80;;;;;;;;;;4986179;28;20499;-52
2022/10/29 08:32:58;;;;;;;5.93;1.67;;;;;;;;;;4978883;28;20029;-48
2022/10/29 08:35:25;;;;;;;7.35;1.92;;;;;;;;;;4991814;28;20034;-51
2022/10/29 08:37:52;;;;;;;7.57;2.17;;;;;;;;;;4978331;28;20053;-51
2022/10/29 08:40:29;;;;;;;7.75;1.92;;;;;;;;;;4983571;28;20129;-47
2022/10/29 08:43:13;;;;;;;10.55;2.10;;;;;;;;;;4976308;28;20062;-47
2022/10/29 08:45:46;;;;;;;4.88;1.67;;;;;;;;;;4976189;28;20042;-53
2022/10/29 08:48:31;;;;;;;5.80;1.60;;;;;;;;;;4976031;28;20038;-50
2022/10/29 08:51:03;;;;;;;3.47;1.48;;;;;;;;;;4976465;28;20034;-49
2022/10/29 08:53:49;;;;;;;6.93;1.85;;;;;;;;;;4988332;28;20030;-50
2022/10/29 08:56:28;;;;;;;6.47;1.58;;;;;;;;;;4991716;28;20786;-50
2022/10/29 08:59:16;;;;;;;6.15;1.30;;;;;;;;;;4989660;28;20377;-47
2022/10/29 09:01:43;;;;;;;5.85;1.52;;;;;;;;;;4976856;28;20041;-47
2022/10/29 09:04:26;;;;;;;5.53;1.40;;;;;;;;;;4995264;28;20029;-52
2022/10/29 09:07:09;;;;;;;3.08;1.58;;;;;;;;;;4995202;28;20037;-51
2022/10/29 09:09:41;;;;;;;5.72;1.25;;;;;;;;;;4995136;28;20413;-50
2022/10/29 09:12:26;;;;;;;5.25;1.33;;;;;;;;;;4981479;28;20104;-48
2022/10/29 09:14:56;;;;;;;5.35;1.60;;;;;;;;;;4983885;28;20481;-50
2022/10/29 09:17:31;;;;;;;2.60;1.10;;;;;;;;;;4979430;28;20023;-49
2022/10/29 09:20:00;;;;;;;5.47;1.35;;;;;;;;;;4995072;28;20026;-47
2022/10/29 09:22:44;;;;;;;7.82;1.17;;;;;;;;;;4981017;28;20556;-47
2022/10/29 09:25:17;;;;;;;5.03;1.10;;;;;;;;;;4994857;28;20042;-51
2022/10/29 09:27:53;;;;;;;5.40;1.17;;;;;;;;;;4993430;28;20114;-51
2022/10/29 09:30:20;;;;;;;2.15;0.82;;;;;;;;;;4982777;28;20101;-49
2022/10/29 09:32:53;;;;;;;4.10;1.00;;;;;;;;;;4993631;28;20042;-47
2022/10/29 09:35:22;;;;;;;4.70;1.15;;;;;;;;;;4994729;28;20089;-49
2022/10/29 09:37:52;;;;;;;5.97;1.42;;;;;;;;;;4994595;28;20034;-49
2022/10/29 09:40:39;;;;;;;4.30;1.27;;;;;;;;;;4994692;28;20392;-52
2022/10/29 09:43:24;;;;;;;5.28;1.10;;;;;;;;;;4975137;28;20022;-49
2022/10/29 09:46:11;;;;;;;4.60;1.00;;;;;;;;;;4988725;28;20033;-49
2022/10/29 09:48:45;;;;;;;4.25;0.85;;;;;;;;;;4973906;28;20042;-47
2022/10/29 09:51:20;;;;;;;4.88;1.08;;;;;;;;;;4976988;28;20043;-52
2022/10/29 09:53:47;;;;;;;5.05;1.13;;;;;;;;;;4994346;28;20412;-52
2022/10/29 09:56:14;;;;;;;5.13;0.98;;;;;;;;;;4990275;28;20061;-49
2022/10/29 09:58:43;;;;;;;1.92;0.70;;;;;;;;;;4980535;28;20041;-48
2022/10/29 10:01:10;;;;;;;2.85;0.70;;;;;;;;;;4984088;28;20027;-48
2022/10/29 10:03:44;;;;;;;3.75;0.93;;;;;;;;;;4974704;28;20045;-50
2022/10/29 10:06:12;;;;;;;5.47;0.80;;;;;;;;;;4974803;28;20026;-48
2022/10/29 10:08:57;;;;;;;3.13;0.90;;;;;;;;;;4989935;28;20451;-49
2022/10/29 10:11:24;;;;;;;2.88;0.90;;;;;;;;;;4994222;28;20114;-49
2022/10/29 10:13:53;;;;;;;5.47;1.00;;;;;;;;;;4991178;28;20059;-48
2022/10/29 10:16:24;;;;;;;2.42;0.82;;;;;;;;;;4981587;28;20559;-47
2022/10/29 10:18:51;;;;;;;2.45;1.02;;;;;;;;;;4974376;28;20026;-47
2022/10/29 10:21:25;;;;;;;2.67;0.80;;;;;;;;;;4982593;28;20049;-52
2022/10/29 10:23:53;;;;;;;3.00;0.80;;;;;;;;;;4989124;28;20038;-49
2022/10/29 10:26:26;;;;;;;2.28;0.70;;;;;;;;;;4974413;28;20039;-49
2022/10/29 10:29:13;;;;;;;4.97;0.70;;;;;;;;;;4987797;28;20613;-52
2022/10/29 10:31:41;;;;;;;3.38;0.70;;;;;;;;;;4974286;28;20028;-47
2022/10/29 10:34:28;;;;;;;5.05;0.80;;;;;;;;;;4987743;28;20034;-47
2022/10/29 10:36:57;;;;;;;4.55;0.77;;;;;;;;;;4973739;28;20047;-49
2022/10/29 10:39:24;;;;;;;7.47;0.80;;;;;;;;;;4987716;28;20042;-49
2022/10/29 10:41:51;;;;;;;7.15;0.80;;;;;;;;;;4974063;28;20037;-47
2022/10/29 10:44:19;;;;;;;1.50;0.60;;;;;;;;;;4973941;28;20038;-48
2022/10/29 10:46:46;;;;;;;4.28;0.77;;;;;;;;;;4973928;28;20042;-48
2022/10/29 10:49:17;;;;;;;4.40;0.90;;;;;;;;;;4973743;28;20109;-49
2022/10/29 10:51:46;;;;;;;6.35;0.90;;;;;;;;;;4973856;28;20046;-47
2022/10/29 10:54:25;;;;;;;3.13;0.80;;;;;;;;;;4973726;28;20401;-47
2022/10/29 10:56:57;;;;;;;3.47;0.50;;;;;;;;;;4987444;28;20027;-48
2022/10/29 10:59:25;;;;;;;5.30;0.63;;;;;;;;;;4973904;28;20038;-52
2022/10/29 11:01:53;;;;;;;6.30;0.90;;;;;;;;;;4972993;28;20270;-47
2022/10/29 11:04:39;;;;;;;3.28;0.65;;;;;;;;;;4973429;28;20046;-49
2022/10/29 11:07:07;;;;;;;9.13;0.98;;;;;;;;;;4990476;28;20439;-47
2022/10/29 11:09:40;;;;;;;3.85;0.80;;;;;;;;;;4992747;28;20123;-53
2022/10/29 11:12:12;;;;;;;4.43;0.90;;;;;;;;;;4990450;28;20489;-47
2022/10/29 11:14:42;;;;;;;3.60;0.77;;;;;;;;;;4973536;28;20778;-49
2022/10/29 11:17:21;;;;;;;6.78;0.73;;;;;;;;;;4975331;28;20409;-48
2022/10/29 11:19:51;;;;;;;3.40;0.68;;;;;;;;;;4992958;28;20022;-48
2022/10/29 11:22:26;;;;;;;3.60;0.73;;;;;;;;;;4976719;28;20041;-47
2022/10/29 11:24:53;;;;;;;4.47;0.70;;;;;;;;;;4973282;28;20026;-48
2022/10/29 11:27:23;;;;;;;4.10;0.98;;;;;;;;;;4973365;28;20026;-47
2022/10/29 11:29:50;;;;;;;3.80;0.70;;;;;;;;;;4973359;28;20050;-48
2022/10/29 11:32:38;;;;;;;6.00;0.60;;;;;;;;;;4986856;28;20396;-46
2022/10/29 11:35:34;;;;;;;5.03;0.77;;;;;;;;;;4973226;28;20393;-47
2022/10/29 11:38:13;;;;;;;7.93;0.90;;;;;;;;;;4977665;28;20080;-51
2022/10/29 11:40:52;;;;;;;5.80;0.85;;;;;;;;;;4991823;28;20062;-48
2022/10/29 11:43:20;;;;;;;2.03;0.60;;;;;;;;;;4991762;28;20034;-47
2022/10/29 11:46:04;;;;;;;4.88;0.95;;;;;;;;;;4992044;28;20454;-48
2022/10/29 11:48:53;;;;;;;3.40;0.82;;;;;;;;;;4972947;28;20089;-48
2022/10/29 11:51:26;;;;;;;3.97;0.95;;;;;;;;;;4973081;28;20043;-48
2022/10/29 11:54:16;;;;;;;5.00;0.90;;;;;;;;;;4981508;28;20440;-47
2022/10/29 11:56:46;;;;;;;4.03;0.70;;;;;;;;;;4982980;28;20038;-48
2022/10/29 11:59:22;;;;;;;5.28;0.88;;;;;;;;;;4973125;28;20566;-51
2022/10/29 12:02:17;;;;;;;4.82;1.00;;;;;;;;;;4986641;28;20065;-49
2022/10/29 12:04:44;;;;;;;5.03;0.90;;;;;;;;;;4964307;28;20070;-50
2022/10/29 12:07:22;;;;;;;3.50;0.85;;;;;;;;;;4974663;28;20030;-48
2022/10/29 12:10:07;;;;;;;11.43;1.40;;;;;;;;;;4972765;28;20046;-47
2022/10/29 12:12:40;;;;;;;4.15;1.17;;;;;;;;;;4979111;28;20041;-48
2022/10/29 12:15:28;;;;;;;4.32;0.90;;;;;;;;;;4995873;28;20496;-49
2022/10/29 12:18:13;;;;;;;4.85;1.00;;;;;;;;;;4976800;28;20436;-49
2022/10/29 12:20:46;;;;;;;7.97;1.10;;;;;;;;;;4990325;28;20085;-48
2022/10/29 12:23:13;;;;;;;8.77;1.20;;;;;;;;;;4976693;28;20023;-51
2022/10/29 12:25:53;;;;;;;7.15;1.00;;;;;;;;;;4981979;28;20022;-50
2022/10/29 12:28:41;;;;;;;4.97;0.88;;;;;;;;;;4982093;28;20167;-54
2022/10/29 12:31:15;;;;;;;4.68;0.88;;;;;;;;;;4992509;28;20479;-51
2022/10/29 12:33:48;;;;;;;5.20;1.25;;;;;;;;;;4995314;28;20032;-53
2022/10/29 12:36:15;;;;;;;3.17;0.88;;;;;;;;;;4993524;28;20029;-51
2022/10/29 12:38:43;;;;;;;7.15;0.80;;;;;;;;;;4995032;28;20038;-50
2022/10/29 12:41:24;;;;;;;6.80;1.13;;;;;;;;;;4995317;28;20035;-49
2022/10/29 12:43:52;;;;;;;4.00;1.08;;;;;;;;;;4995117;28;20034;-54
2022/10/29 12:46:28;;;;;;;5.53;1.20;;;;;;;;;;4994085;28;20045;-52
2022/10/29 12:49:01;;;;;;;5.88;1.30;;;;;;;;;;4994304;28;20113;-51
2022/10/29 12:51:37;;;;;;;6.63;1.33;;;;;;;;;;4994038;28;20088;-52
2022/10/29 12:54:20;;;;;;;7.80;1.50;;;;;;;;;;4994660;28;20077;-53
2022/10/29 12:56:47;;;;;;;32.25;19.42;;;;;;;;;;4993020;28;20380;-56
2022/10/29 12:59:32;;;;;;;32.10;19.27;;;;;;;;;;4994747;28;20031;-49
2022/10/29 13:02:17;;;;;;;46.83;30.80;;;;;;;;;;4992662;28;20031;-51
2022/10/29 13:05:02;;;;;;;41.15;28.25;;;;;;;;;;4993759;28;20117;-51
2022/10/29 13:07:29;;;;;;;28.77;17.90;;;;;;;;;;4993621;28;20026;-54
2022/10/29 13:10:14;;;;;;;31.02;19.90;;;;;;;;;;4990425;28;20042;-54
2022/10/29 13:12:53;;;;;;;39.53;20.55;;;;;;;;;;4993163;28;20030;-55
2022/10/29 13:15:21;;;;;;;29.70;17.33;;;;;;;;;;4993959;28;20034;-56
2022/10/29 13:17:49;;;;;;;26.10;14.25;;;;;;;;;;4989693;28;20026;-55
2022/10/29 13:20:20;;;;;;;25.95;15.77;;;;;;;;;;4992025;28;20547;-55
2022/10/29 13:22:47;;;;;;;28.23;16.42;;;;;;;;;;4993583;28;20450;-53
2022/10/29 13:25:32;;;;;;;27.45;15.20;;;;;;;;;;4993793;28;20101;-57
2022/10/29 13:28:08;;;;;;;30.50;14.10;;;;;;;;;;4993688;28;20050;-52
2022/10/29 13:30:36;;;;;;;31.77;16.58;;;;;;;;;;4994739;28;20034;-52
2022/10/29 13:33:23;;;;;;;36.83;23.10;;;;;;;;;;4992536;28;20655;-54
2022/10/29 13:35:54;;;;;;;27.98;19.17;;;;;;;;;;4977331;28;20578;-53
2022/10/29 13:38:41;;;;;;;24.30;13.63;;;;;;;;;;4993881;28;20026;-56
2022/10/29 13:41:19;;;;;;;30.05;15.98;;;;;;;;;;4964440;28;20050;-52
2022/10/29 13:43:59;;;;;;;33.20;17.35;;;;;;;;;;4980007;28;20117;-55
2022/10/29 13:46:39;;;;;;;35.47;20.75;;;;;;;;;;4992215;28;20034;-55
2022/10/29 13:49:11;;;;;;;31.88;20.80;;;;;;;;;;4994331;28;20026;-52
2022/10/29 13:51:43;;;;;;;32.35;19.95;;;;;;;;;;4991893;28;20631;-53
2022/10/29 13:54:24;;;;;;;37.35;19.13;;;;;;;;;;4993369;28;20380;-51
2022/10/29 13:56:53;;;;;;;34.03;17.98;;;;;;;;;;4990059;28;20027;-54
2022/10/29 13:59:41;;;;;;;35.42;17.02;;;;;;;;;;4993432;28;20031;-55
2022/10/29 14:02:19;;;;;;;35.08;16.23;;;;;;;;;;4993235;28;20109;-48
2022/10/29 14:04:49;;;;;;;26.45;13.73;;;;;;;;;;4992945;28;20495;-49
2022/10/29 14:07:18;;;;;;;27.77;11.93;;;;;;;;;;4992403;28;20034;-56
2022/10/29 14:09:51;;;;;;;30.88;11.05;;;;;;;;;;4992640;28;20452;-50
2022/10/29 14:12:21;;;;;;;18.80;10.57;;;;;;;;;;4993258;28;20377;-50
2022/10/29 14:14:56;;;;;;;26.17;11.00;;;;;;;;;;4993413;28;20095;-52
2022/10/29 14:17:23;;;;;;;28.88;10.75;;;;;;;;;;4993572;28;20029;-50
2022/10/29 14:19:51;;;;;;;28.70;10.70;;;;;;;;;;4993042;28;20499;-53
2022/10/29 14:22:21;;;;;;;21.95;8.75;;;;;;;;;;4982504;28;20038;-51
2022/10/29 14:24:48;;;;;;;20.50;6.25;;;;;;;;;;4985528;28;20026;-47
2022/10/29 14:27:15;;;;;;;18.35;6.80;;;;;;;;;;4992967;28;20487;-50
2022/10/29 14:29:42;;;;;;;20.02;5.75;;;;;;;;;;4992988;28;20038;-53
2022/10/29 14:32:12;;;;;;;17.50;6.18;;;;;;;;;;4979663;28;20543;-50
2022/10/29 14:34:44;;;;;;;12.68;4.05;;;;;;;;;;4990352;28;20033;-48
2022/10/29 14:37:23;;;;;;;20.77;4.00;;;;;;;;;;4988323;28;20034;-51
2022/10/29 14:39:54;;;;;;;11.80;3.70;;;;;;;;;;4992198;28;20101;-54
2022/10/29 14:42:40;;;;;;;22.60;4.32;;;;;;;;;;4991998;28;20038;-47
2022/10/29 14:45:16;;;;;;;28.58;3.90;;;;;;;;;;4991279;28;20019;-53
2022/10/29 14:47:43;;;;;;;23.17;3.53;;;;;;;;;;4991279;28;20027;-47
2022/10/29 14:50:18;;;;;;;14.07;3.92;;;;;;;;;;4991582;28;20046;-52
2022/10/29 14:52:47;;;;;;;17.98;3.20;;;;;;;;;;4991405;28;20732;-52
2022/10/29 14:55:20;;;;;;;21.13;3.55;;;;;;;;;;4991708;28;20069;-52